Time;durP1;ratioP1;P1;durP2;ratioP2;P2;SDS_P1;SDS_P2;PMS_P1;PMS_P2;Temp;Humidity;BMP_temperature;BMP_pressure;BME280_temperature;BME280_humidity;BME280_pressure;Samples;Min_cycle;Max_cycle;Signal;HPM_P1;HPM_P2
2022/09/26 00:01:13;;;;;;;30.88;25.45;;;;;;;;;;5012379;28;20025;-57
2022/09/26 00:03:42;;;;;;;31.00;25.73;;;;;;;;;;5031595;28;20029;-58
2022/09/26 00:06:08;;;;;;;31.20;27.38;;;;;;;;;;5019158;28;20033;-57
2022/09/26 00:08:35;;;;;;;31.20;27.10;;;;;;;;;;5011788;28;20030;-58
2022/09/26 00:11:02;;;;;;;32.00;26.65;;;;;;;;;;5011863;28;20030;-57
2022/09/26 00:13:29;;;;;;;33.78;28.45;;;;;;;;;;5008887;28;20060;-57
2022/09/26 00:15:56;;;;;;;38.83;31.50;;;;;;;;;;5019695;28;20080;-58
2022/09/26 00:18:22;;;;;;;39.90;30.33;;;;;;;;;;5011713;28;20105;-58
2022/09/26 00:20:49;;;;;;;39.57;30.57;;;;;;;;;;5011817;28;20034;-56
2022/09/26 00:23:15;;;;;;;35.30;26.73;;;;;;;;;;5011670;28;20294;-58
2022/09/26 00:25:48;;;;;;;34.70;27.43;;;;;;;;;;5019228;28;20038;-58
2022/09/26 00:28:14;;;;;;;35.40;28.85;;;;;;;;;;5000710;28;20030;-58
2022/09/26 00:30:40;;;;;;;32.03;26.47;;;;;;;;;;5012095;28;20397;-57
2022/09/26 00:33:07;;;;;;;34.67;27.30;;;;;;;;;;5013445;28;20271;-57
2022/09/26 00:35:33;;;;;;;32.20;28.70;;;;;;;;;;5013394;28;20029;-58
2022/09/26 00:37:59;;;;;;;32.83;26.52;;;;;;;;;;5018070;28;20030;-58
2022/09/26 00:40:26;;;;;;;35.47;26.92;;;;;;;;;;5029787;28;20468;-57
2022/09/26 00:42:56;;;;;;;33.78;29.75;;;;;;;;;;5030842;28;20365;-58
2022/09/26 00:45:24;;;;;;;44.15;29.80;;;;;;;;;;5021354;28;20040;-58
2022/09/26 00:47:58;;;;;;;34.47;27.70;;;;;;;;;;5031078;28;20488;-58
2022/09/26 00:50:32;;;;;;;32.20;27.90;;;;;;;;;;5010408;28;20056;-57
2022/09/26 00:53:19;;;;;;;35.75;29.30;;;;;;;;;;5027247;28;20089;-57
2022/09/26 00:55:49;;;;;;;33.72;27.50;;;;;;;;;;5012427;28;20124;-57
2022/09/26 00:58:21;;;;;;;36.50;29.25;;;;;;;;;;5023601;28;20108;-57
2022/09/26 01:00:48;;;;;;;38.72;30.30;;;;;;;;;;5029718;28;20128;-57
2022/09/26 01:03:15;;;;;;;96.57;30.73;;;;;;;;;;5030635;28;20539;-57
2022/09/26 01:05:42;;;;;;;52.70;29.02;;;;;;;;;;5024837;28;20395;-58
2022/09/26 01:08:08;;;;;;;;;;;;;;;;;;5019232;28;20018;-58
2022/09/26 01:10:35;;;;;;;41.97;25.38;;;;;;;;;;5031076;28;19905;-58
2022/09/26 01:13:02;;;;;;;31.00;25.98;;;;;;;;;;5020154;28;20157;-58
2022/09/26 01:15:28;;;;;;;30.77;25.15;;;;;;;;;;5015404;28;20492;-58
2022/09/26 01:17:55;;;;;;;31.23;24.85;;;;;;;;;;5029508;28;20496;-58
2022/09/26 01:20:24;;;;;;;33.63;26.10;;;;;;;;;;5030118;28;20076;-58
2022/09/26 01:22:50;;;;;;;24.20;21.45;;;;;;;;;;4996907;28;20395;-57
2022/09/26 01:25:17;;;;;;;25.10;21.77;;;;;;;;;;5014401;28;20116;-58
2022/09/26 01:27:45;;;;;;;24.83;21.38;;;;;;;;;;5023809;28;20057;-58
2022/09/26 01:30:12;;;;;;;27.27;22.77;;;;;;;;;;5010999;28;20032;-58
2022/09/26 01:32:48;;;;;;;40.47;21.90;;;;;;;;;;5025330;28;20068;-57
2022/09/26 01:35:33;;;;;;;30.40;25.17;;;;;;;;;;5032406;28;20067;-58
2022/09/26 01:38:14;;;;;;;30.73;26.80;;;;;;;;;;5031324;28;20480;-57
2022/09/26 01:40:59;;;;;;;32.75;26.23;;;;;;;;;;5027895;28;20038;-57
2022/09/26 01:43:30;;;;;;;36.38;28.83;;;;;;;;;;5019965;28;20022;-57
2022/09/26 01:45:56;;;;;;;34.28;28.75;;;;;;;;;;5021171;28;20037;-58
2022/09/26 01:48:38;;;;;;;37.72;30.73;;;;;;;;;;5015622;28;20026;-58
2022/09/26 01:51:08;;;;;;;39.47;31.13;;;;;;;;;;5014611;28;20029;-56
2022/09/26 01:53:55;;;;;;;37.30;29.92;;;;;;;;;;5020770;28;20020;-58
2022/09/26 01:56:26;;;;;;;39.63;30.70;;;;;;;;;;5017190;28;20447;-56
2022/09/26 01:59:11;;;;;;;49.33;33.97;;;;;;;;;;5009917;28;20030;-57
2022/09/26 02:01:40;;;;;;;34.97;26.55;;;;;;;;;;4994591;28;20420;-56
2022/09/26 02:04:10;;;;;;;38.08;30.45;;;;;;;;;;5024160;28;20033;-57
2022/09/26 02:07:15;;;;;;;34.53;27.77;;;;;;;;;;5032893;28;20033;-57
2022/09/26 02:09:49;;;;;;;38.05;28.67;;;;;;;;;;4955508;28;20323;-57
2022/09/26 02:12:36;;;;;;;34.88;26.40;;;;;;;;;;4954565;28;20043;-56
2022/09/26 02:15:13;;;;;;;28.05;24.23;;;;;;;;;;4974555;28;20064;-57
2022/09/26 02:17:39;;;;;;;;;;;;;;;;;;5001354;28;20022;-57
2022/09/26 02:20:10;;;;;;;26.90;22.75;;;;;;;;;;5013688;28;20380;-57
2022/09/26 02:22:36;;;;;;;29.52;24.15;;;;;;;;;;5063485;23;20042;-57
2022/09/26 02:25:03;;;;;;;30.65;24.15;;;;;;;;;;5052877;28;20045;-58
2022/09/26 02:27:29;;;;;;;30.88;25.90;;;;;;;;;;5019416;28;20506;-59
2022/09/26 02:29:56;;;;;;;35.72;29.13;;;;;;;;;;5035960;28;20035;-56
2022/09/26 02:32:26;;;;;;;45.13;29.85;;;;;;;;;;5016282;28;20048;-59
2022/09/26 02:34:52;;;;;;;63.45;31.08;;;;;;;;;;5013741;28;20041;-57
2022/09/26 02:37:20;;;;;;;47.92;32.65;;;;;;;;;;5015864;28;20030;-55
2022/09/26 02:39:46;;;;;;;40.95;30.13;;;;;;;;;;5014396;28;20100;-56
2022/09/26 02:42:35;;;;;;;38.92;30.90;;;;;;;;;;5025460;28;20030;-56
2022/09/26 02:45:07;;;;;;;45.92;32.88;;;;;;;;;;5013229;28;20049;-54
2022/09/26 02:47:40;;;;;;;55.97;39.63;;;;;;;;;;5024960;28;20021;-59
2022/09/26 02:50:09;;;;;;;47.33;35.17;;;;;;;;;;5014726;28;20141;-57
2022/09/26 02:53:13;;;;;;;45.38;33.67;;;;;;;;;;5028201;28;20028;-56
2022/09/26 02:55:42;;;;;;;48.13;33.78;;;;;;;;;;4925863;29;20040;-56
2022/09/26 02:58:25;;;;;;;71.88;38.90;;;;;;;;;;4898649;29;20116;-56
2022/09/26 03:00:58;;;;;;;61.63;36.10;;;;;;;;;;4976676;28;20060;-54
2022/09/26 03:03:35;;;;;;;71.20;37.80;;;;;;;;;;5013348;28;20026;-59
2022/09/26 03:06:03;;;;;;;53.67;35.42;;;;;;;;;;5032760;28;20029;-57
2022/09/26 03:08:30;;;;;;;47.50;34.03;;;;;;;;;;5026675;28;20079;-56
2022/09/26 03:10:58;;;;;;;44.17;33.88;;;;;;;;;;4996170;28;20072;-57
2022/09/26 03:13:25;;;;;;;44.22;34.47;;;;;;;;;;5012752;28;20018;-57
2022/09/26 03:15:54;;;;;;;44.95;34.17;;;;;;;;;;5028321;28;20041;-58
2022/09/26 03:18:23;;;;;;;44.08;33.58;;;;;;;;;;5010134;28;20079;-57
2022/09/26 03:20:49;;;;;;;40.15;30.85;;;;;;;;;;5018584;28;20034;-57
2022/09/26 03:23:15;;;;;;;42.20;33.20;;;;;;;;;;5022205;28;20411;-58
2022/09/26 03:25:41;;;;;;;39.38;30.58;;;;;;;;;;5019906;28;20490;-57
2022/09/26 03:28:07;;;;;;;36.22;28.85;;;;;;;;;;5013226;28;20064;-60
2022/09/26 03:30:33;;;;;;;34.58;26.30;;;;;;;;;;5015118;28;20117;-59
2022/09/26 03:33:02;;;;;;;32.88;25.90;;;;;;;;;;5023577;28;20053;-57
2022/09/26 03:35:29;;;;;;;37.90;27.95;;;;;;;;;;5024561;28;20033;-58
2022/09/26 03:37:55;;;;;;;36.30;28.35;;;;;;;;;;4995066;28;20057;-59
2022/09/26 03:40:21;;;;;;;32.15;25.98;;;;;;;;;;5020929;28;20459;-59
2022/09/26 03:42:47;;;;;;;31.63;24.30;;;;;;;;;;5021685;28;20109;-59
2022/09/26 03:45:13;;;;;;;32.05;25.30;;;;;;;;;;5020446;28;20077;-57
2022/09/26 03:47:40;;;;;;;27.48;23.50;;;;;;;;;;5016014;28;20500;-59
2022/09/26 03:50:07;;;;;;;30.05;24.63;;;;;;;;;;5030380;28;20420;-59
2022/09/26 03:52:33;;;;;;;72.53;22.93;;;;;;;;;;5032036;28;20052;-60
2022/09/26 03:54:59;;;;;;;70.00;23.83;;;;;;;;;;5023445;28;20267;-58
2022/09/26 03:57:25;;;;;;;79.63;27.08;;;;;;;;;;5030696;28;20033;-59
2022/09/26 03:59:51;;;;;;;29.63;23.88;;;;;;;;;;5013150;28;20026;-58
2022/09/26 04:02:18;;;;;;;35.25;27.48;;;;;;;;;;5011748;28;20105;-58
2022/09/26 04:04:44;;;;;;;33.83;24.98;;;;;;;;;;5012071;28;20434;-58
2022/09/26 04:07:10;;;;;;;47.38;27.13;;;;;;;;;;5012045;28;20093;-58
2022/09/26 04:09:36;;;;;;;33.95;25.40;;;;;;;;;;4994228;28;20109;-58
2022/09/26 04:12:02;;;;;;;70.97;23.50;;;;;;;;;;5011987;28;20511;-58
2022/09/26 04:14:30;;;;;;;58.85;23.15;;;;;;;;;;4994240;28;20036;-56
2022/09/26 04:16:57;;;;;;;32.28;21.42;;;;;;;;;;5012053;28;20445;-57
2022/09/26 04:19:23;;;;;;;;;;;;;;;;;;5012272;28;20029;-55
2022/09/26 04:21:51;;;;;;;30.73;20.73;;;;;;;;;;5011958;28;19913;-57
2022/09/26 04:24:18;;;;;;;24.92;18.67;;;;;;;;;;4993970;28;20109;-57
2022/09/26 04:26:44;;;;;;;21.85;19.55;;;;;;;;;;5012083;28;20105;-57
2022/09/26 04:29:10;;;;;;;24.15;21.08;;;;;;;;;;5011763;28;20030;-58
2022/09/26 04:31:36;;;;;;;25.75;22.75;;;;;;;;;;5011841;28;20026;-57
2022/09/26 04:34:05;;;;;;;27.80;22.75;;;;;;;;;;5011755;28;20026;-57
2022/09/26 04:36:31;;;;;;;29.27;23.92;;;;;;;;;;5011830;28;20362;-58
2022/09/26 04:38:59;;;;;;;31.77;26.05;;;;;;;;;;5011536;28;20061;-60
2022/09/26 04:41:26;;;;;;;32.10;25.98;;;;;;;;;;5011717;28;20022;-57
2022/09/26 04:43:56;;;;;;;31.70;24.73;;;;;;;;;;5011742;28;20030;-59
2022/09/26 04:46:23;;;;;;;33.15;26.88;;;;;;;;;;5011674;28;20033;-58
2022/09/26 04:48:50;;;;;;;31.95;24.77;;;;;;;;;;5011463;28;20029;-59
2022/09/26 04:51:17;;;;;;;30.60;25.08;;;;;;;;;;5012169;28;20062;-58
2022/09/26 04:53:43;;;;;;;27.00;21.75;;;;;;;;;;4993996;28;20057;-58
2022/09/26 04:56:11;;;;;;;34.75;24.30;;;;;;;;;;5011454;28;20061;-59
2022/09/26 04:58:37;;;;;;;31.15;23.55;;;;;;;;;;5011475;28;20026;-58
2022/09/26 05:01:08;;;;;;;29.85;22.75;;;;;;;;;;5011634;28;20034;-57
2022/09/26 05:03:37;;;;;;;29.38;22.13;;;;;;;;;;5011421;28;20103;-59
2022/09/26 05:06:07;;;;;;;26.58;22.02;;;;;;;;;;5011339;28;20427;-55
2022/09/26 05:08:47;;;;;;;21.88;18.05;;;;;;;;;;5011594;28;20030;-56
2022/09/26 05:11:14;;;;;;;31.10;22.13;;;;;;;;;;5015377;28;20033;-54
2022/09/26 05:13:40;;;;;;;28.08;22.42;;;;;;;;;;5015147;28;20022;-60
2022/09/26 05:16:09;;;;;;;25.95;20.15;;;;;;;;;;5015243;28;20104;-57
2022/09/26 05:18:36;;;;;;;25.63;20.70;;;;;;;;;;4997284;28;20484;-55
2022/09/26 05:21:04;;;;;;;27.65;20.92;;;;;;;;;;5015074;28;20076;-58
2022/09/26 05:26:23;;;;;;;26.20;20.50;;;;;;;;;;5015046;28;20033;-58
2022/09/26 05:28:51;;;;;;;27.83;22.13;;;;;;;;;;5014768;28;20033;-56
2022/09/26 05:31:18;;;;;;;29.58;23.70;;;;;;;;;;5014851;28;20053;-56
2022/09/26 05:33:45;;;;;;;30.35;22.92;;;;;;;;;;5014758;28;20030;-57
2022/09/26 05:36:11;;;;;;;35.47;24.30;;;;;;;;;;5014879;28;20411;-60
2022/09/26 05:38:37;;;;;;;26.25;21.05;;;;;;;;;;5015630;28;20392;-59
2022/09/26 05:41:03;;;;;;;26.30;21.45;;;;;;;;;;5014763;28;20545;-58
2022/09/26 05:43:30;;;;;;;27.30;21.88;;;;;;;;;;5014568;28;20030;-58
2022/09/26 05:45:57;;;;;;;;;;;;;;;;;;5015166;28;20387;-58
2022/09/26 05:48:23;;;;;;;23.00;18.15;;;;;;;;;;5014462;28;19909;-59
2022/09/26 05:50:50;;;;;;;26.27;20.90;;;;;;;;;;5014602;28;20049;-61
2022/09/26 05:53:16;;;;;;;31.77;23.23;;;;;;;;;;5014447;28;20046;-58
2022/09/26 05:55:42;;;;;;;29.77;22.35;;;;;;;;;;5014714;28;20428;-60
2022/09/26 05:58:08;;;;;;;26.05;20.95;;;;;;;;;;5014275;28;20029;-60
2022/09/26 06:00:37;;;;;;;26.10;20.90;;;;;;;;;;5014359;28;20057;-61
2022/09/26 06:03:03;;;;;;;32.65;23.30;;;;;;;;;;5014144;28;20557;-61
2022/09/26 06:05:32;;;;;;;102.57;29.75;;;;;;;;;;5015014;28;20030;-61
2022/09/26 06:08:00;;;;;;;179.13;33.60;;;;;;;;;;5025182;28;20514;-60
2022/09/26 06:10:27;;;;;;;225.15;36.78;;;;;;;;;;5022546;28;20069;-60
2022/09/26 06:12:53;;;;;;;155.90;32.60;;;;;;;;;;5024027;28;20017;-60
2022/09/26 06:15:19;;;;;;;98.72;31.33;;;;;;;;;;5023630;28;20029;-60
2022/09/26 06:17:47;;;;;;;178.33;30.37;;;;;;;;;;5023051;28;20036;-62
2022/09/26 06:20:13;;;;;;;80.90;26.77;;;;;;;;;;5023824;28;20242;-61
2022/09/26 06:22:40;;;;;;;81.07;25.33;;;;;;;;;;5022942;28;20064;-61
2022/09/26 06:25:06;;;;;;;78.63;26.00;;;;;;;;;;5007362;28;20022;-61
2022/09/26 06:27:37;;;;;;;91.50;27.90;;;;;;;;;;5015974;28;20112;-59
2022/09/26 06:30:04;;;;;;;89.05;28.27;;;;;;;;;;5024100;28;20022;-56
2022/09/26 06:32:30;;;;;;;76.60;29.75;;;;;;;;;;5028699;28;20025;-57
2022/09/26 06:34:56;;;;;;;104.90;31.27;;;;;;;;;;5015826;28;20029;-57
2022/09/26 06:37:22;;;;;;;133.68;33.28;;;;;;;;;;5033578;28;20447;-56
2022/09/26 06:39:48;;;;;;;123.47;36.65;;;;;;;;;;5033369;28;20057;-60
2022/09/26 06:42:14;;;;;;;94.00;32.83;;;;;;;;;;5027152;28;20068;-59
2022/09/26 06:44:40;;;;;;;117.22;33.63;;;;;;;;;;5021851;28;20057;-60
2022/09/26 06:47:07;;;;;;;99.22;30.58;;;;;;;;;;5009916;28;20053;-60
2022/09/26 06:49:33;;;;;;;139.98;31.70;;;;;;;;;;5027063;28;20109;-60
2022/09/26 06:52:00;;;;;;;98.13;32.92;;;;;;;;;;5030441;28;20530;-60
2022/09/26 06:54:26;;;;;;;110.40;35.33;;;;;;;;;;5033195;28;20025;-59
2022/09/26 06:56:52;;;;;;;111.22;31.77;;;;;;;;;;5033133;28;20634;-59
2022/09/26 06:59:18;;;;;;;87.20;33.08;;;;;;;;;;5032940;28;20468;-60
2022/09/26 07:01:47;;;;;;;84.00;33.08;;;;;;;;;;5032942;28;20557;-60
2022/09/26 07:04:14;;;;;;;67.78;31.73;;;;;;;;;;5031572;28;20033;-58
2022/09/26 07:06:40;;;;;;;;;;;;;;;;;;5024345;28;20487;-59
2022/09/26 07:09:06;;;;;;;65.85;28.20;;;;;;;;;;5018166;28;19905;-59
2022/09/26 07:11:32;;;;;;;51.03;29.65;;;;;;;;;;5013100;28;20029;-60
2022/09/26 07:14:00;;;;;;;80.97;31.33;;;;;;;;;;5013024;28;20104;-60
2022/09/26 07:16:26;;;;;;;95.63;33.03;;;;;;;;;;5012998;28;20029;-59
2022/09/26 07:18:52;;;;;;;72.50;29.17;;;;;;;;;;5012756;28;20022;-59
2022/09/26 07:21:18;;;;;;;83.85;32.55;;;;;;;;;;4995319;28;20026;-58
2022/09/26 07:23:44;;;;;;;97.97;32.85;;;;;;;;;;5017587;28;20025;-58
2022/09/26 07:26:11;;;;;;;54.70;32.80;;;;;;;;;;5020461;28;20037;-59
2022/09/26 07:28:37;;;;;;;92.45;33.67;;;;;;;;;;5012516;28;20032;-58
2022/09/26 07:31:03;;;;;;;71.10;34.73;;;;;;;;;;5012238;28;20054;-58
2022/09/26 07:33:30;;;;;;;99.22;35.55;;;;;;;;;;5012389;28;20300;-57
2022/09/26 07:35:56;;;;;;;87.40;34.33;;;;;;;;;;5012812;28;20507;-58
2022/09/26 07:38:24;;;;;;;67.82;34.58;;;;;;;;;;5012657;28;20054;-57
2022/09/26 07:40:53;;;;;;;65.63;33.95;;;;;;;;;;5012683;28;20504;-55
2022/09/26 07:43:19;;;;;;;61.65;33.90;;;;;;;;;;5012517;28;20036;-59
2022/09/26 07:51:15;;;;;;;66.95;34.60;;;;;;;;;;5012514;28;20080;-57
2022/09/26 07:53:41;;;;;;;49.10;33.95;;;;;;;;;;5012341;28;20022;-59
2022/09/26 07:56:11;;;;;;;54.50;33.88;;;;;;;;;;5012317;28;20106;-60
2022/09/26 07:58:39;;;;;;;57.40;36.85;;;;;;;;;;5012323;28;20056;-61
2022/09/26 08:01:15;;;;;;;50.33;33.55;;;;;;;;;;5014799;28;20448;-59
2022/09/26 08:03:42;;;;;;;52.55;35.22;;;;;;;;;;5014761;28;20113;-58
2022/09/26 08:06:08;;;;;;;49.22;33.95;;;;;;;;;;5012215;28;20026;-60
2022/09/26 08:08:35;;;;;;;47.70;33.20;;;;;;;;;;5012129;28;20025;-59
2022/09/26 08:11:01;;;;;;;;;;;;;;;;;;5012672;28;20025;-58
2022/09/26 08:13:28;;;;;;;43.70;32.17;;;;;;;;;;5012079;28;19996;-59
2022/09/26 08:15:55;;;;;;;44.83;31.55;;;;;;;;;;4994404;28;20053;-58
2022/09/26 08:18:21;;;;;;;52.23;32.27;;;;;;;;;;5011937;28;20038;-58
2022/09/26 08:20:47;;;;;;;39.45;32.58;;;;;;;;;;5012463;28;20088;-56
2022/09/26 08:23:14;;;;;;;44.22;33.42;;;;;;;;;;5012404;28;20124;-58
2022/09/26 08:25:41;;;;;;;43.65;34.33;;;;;;;;;;5011878;28;20105;-59
2022/09/26 08:28:11;;;;;;;42.72;32.97;;;;;;;;;;4993615;28;20030;-57
2022/09/26 08:30:37;;;;;;;42.25;33.47;;;;;;;;;;5011156;28;20018;-58
2022/09/26 08:33:03;;;;;;;42.17;33.70;;;;;;;;;;5011742;28;20018;-57
2022/09/26 08:35:34;;;;;;;41.47;33.33;;;;;;;;;;4994216;28;20108;-57
2022/09/26 08:38:07;;;;;;;44.50;34.30;;;;;;;;;;5011863;28;20404;-56
2022/09/26 08:40:53;;;;;;;41.33;31.90;;;;;;;;;;5011777;28;20061;-58
2022/09/26 08:43:38;;;;;;;39.47;31.02;;;;;;;;;;5013189;28;20496;-58
2022/09/26 08:46:42;;;;;;;35.08;28.45;;;;;;;;;;5015698;28;20401;-57
2022/09/26 08:49:38;;;;;;;40.40;30.67;;;;;;;;;;5015658;28;20383;-58
2022/09/26 08:52:06;;;;;;;39.38;30.67;;;;;;;;;;5015743;28;20025;-58
2022/09/26 08:54:43;;;;;;;39.75;29.83;;;;;;;;;;5015532;28;20088;-58
2022/09/26 08:57:27;;;;;;;35.97;30.73;;;;;;;;;;4997895;28;20116;-57
2022/09/26 08:59:53;;;;;;;40.10;30.73;;;;;;;;;;5015337;28;20030;-58
2022/09/26 09:02:22;;;;;;;35.78;29.73;;;;;;;;;;4997829;28;20441;-57
2022/09/26 09:04:54;;;;;;;37.35;28.90;;;;;;;;;;5015335;28;20507;-58
2022/09/26 09:07:24;;;;;;;34.95;27.63;;;;;;;;;;5015415;28;20021;-57
2022/09/26 09:09:51;;;;;;;34.85;28.02;;;;;;;;;;4997591;28;20018;-57
2022/09/26 09:12:17;;;;;;;;;;;;;;;;;;4998015;28;20026;-57
2022/09/26 09:14:49;;;;;;;31.80;25.95;;;;;;;;;;5015225;28;20437;-57
2022/09/26 09:17:18;;;;;;;35.75;26.92;;;;;;;;;;5015242;28;20030;-57
2022/09/26 09:20:03;;;;;;;31.10;26.73;;;;;;;;;;5015043;28;20049;-57
2022/09/26 09:23:02;;;;;;;30.65;26.35;;;;;;;;;;5014977;28;20488;-57
2022/09/26 09:25:32;;;;;;;29.17;24.27;;;;;;;;;;4982042;28;20041;-56
2022/09/26 09:28:24;;;;;;;29.50;23.08;;;;;;;;;;4997430;28;20037;-56
2022/09/26 09:30:55;;;;;;;33.20;23.70;;;;;;;;;;4992072;28;20046;-57
2022/09/26 09:33:41;;;;;;;29.92;23.88;;;;;;;;;;4997220;28;20030;-58
2022/09/26 09:36:07;;;;;;;26.42;22.40;;;;;;;;;;5014786;28;20503;-58
2022/09/26 09:38:35;;;;;;;25.05;22.20;;;;;;;;;;5014575;28;20026;-58
2022/09/26 09:41:01;;;;;;;26.58;23.08;;;;;;;;;;5014858;28;20045;-58
2022/09/26 09:43:34;;;;;;;26.25;23.45;;;;;;;;;;5014595;28;20100;-57
2022/09/26 09:46:05;;;;;;;22.15;19.00;;;;;;;;;;5014462;28;20103;-57
2022/09/26 09:48:31;;;;;;;22.30;19.85;;;;;;;;;;5013426;28;20040;-57
2022/09/26 09:51:12;;;;;;;23.50;19.15;;;;;;;;;;5014421;28;20025;-58
2022/09/26 09:53:57;;;;;;;19.27;17.20;;;;;;;;;;5014526;28;20053;-58
2022/09/26 09:56:42;;;;;;;18.13;15.95;;;;;;;;;;5012522;28;20026;-58
2022/09/26 09:59:13;;;;;;;17.20;15.40;;;;;;;;;;5014334;28;20040;-58
2022/09/26 10:01:41;;;;;;;19.10;16.33;;;;;;;;;;5014399;28;20108;-58
2022/09/26 10:04:22;;;;;;;17.08;14.77;;;;;;;;;;5014341;28;20026;-58
2022/09/26 10:06:48;;;;;;;17.88;14.80;;;;;;;;;;5014305;28;20100;-58
2022/09/26 10:09:36;;;;;;;21.73;16.87;;;;;;;;;;5014181;28;20034;-56
2022/09/26 10:12:06;;;;;;;15.55;13.95;;;;;;;;;;4996633;28;20257;-57
2022/09/26 10:14:36;;;;;;;14.07;12.57;;;;;;;;;;5014354;28;20036;-57
2022/09/26 10:17:10;;;;;;;15.45;13.85;;;;;;;;;;5020513;28;20033;-57
2022/09/26 10:19:39;;;;;;;13.30;11.57;;;;;;;;;;5015004;28;20033;-57
2022/09/26 10:22:08;;;;;;;13.38;11.98;;;;;;;;;;5004558;28;20029;-57
2022/09/26 10:24:45;;;;;;;13.50;11.10;;;;;;;;;;5002279;28;20041;-57
2022/09/26 10:27:14;;;;;;;12.40;10.80;;;;;;;;;;5021062;28;20032;-56
2022/09/26 10:29:40;;;;;;;14.07;12.68;;;;;;;;;;5029879;28;20017;-56
2022/09/26 10:32:06;;;;;;;13.67;11.97;;;;;;;;;;5033651;28;20483;-58
2022/09/26 10:34:33;;;;;;;13.82;12.32;;;;;;;;;;5016356;28;20037;-57
2022/09/26 10:36:59;;;;;;;;;;;;;;;;;;5032648;28;20033;-57
2022/09/26 10:42:18;;;;;;;13.43;11.57;;;;;;;;;;5018626;28;20108;-53
2022/09/26 10:44:46;;;;;;;10.10;9.02;;;;;;;;;;5018739;28;20026;-53
2022/09/26 10:47:26;;;;;;;11.52;10.27;;;;;;;;;;5014730;28;20121;-54
2022/09/26 10:49:56;;;;;;;14.00;11.45;;;;;;;;;;5024187;28;20021;-52
2022/09/26 10:52:22;;;;;;;11.30;10.10;;;;;;;;;;5022644;28;20476;-52
2022/09/26 10:55:03;;;;;;;11.07;9.98;;;;;;;;;;5003869;28;20073;-55
2022/09/26 10:57:33;;;;;;;11.45;10.25;;;;;;;;;;5020433;28;20496;-52
2022/09/26 11:00:00;;;;;;;11.60;10.40;;;;;;;;;;5011191;28;20113;-55
2022/09/26 11:02:27;;;;;;;13.10;11.05;;;;;;;;;;5003979;28;20554;-53
2022/09/26 11:07:47;;;;;;;11.57;10.13;;;;;;;;;;5026379;28;20036;-57
2022/09/26 11:10:14;;;;;;;10.57;9.48;;;;;;;;;;5022276;28;20033;-59
2022/09/26 11:12:55;;;;;;;8.60;6.50;;;;;;;;;;5032551;28;20596;-57
2022/09/26 11:15:22;;;;;;;8.95;8.02;;;;;;;;;;5028057;28;20048;-53
2022/09/26 11:17:49;;;;;;;9.18;7.78;;;;;;;;;;5016111;28;20033;-53
2022/09/26 11:20:27;;;;;;;8.45;7.25;;;;;;;;;;5032203;28;20407;-53
2022/09/26 11:23:03;;;;;;;5.97;5.38;;;;;;;;;;5030853;28;20040;-52
2022/09/26 11:25:46;;;;;;;7.82;7.03;;;;;;;;;;5013891;28;20481;-53
2022/09/26 11:28:15;;;;;;;92.75;83.38;;;;;;;;;;5027411;28;20036;-53
2022/09/26 11:30:47;;;;;;;10.75;9.18;;;;;;;;;;5032841;28;20097;-52
2022/09/26 11:33:17;;;;;;;10.57;9.20;;;;;;;;;;5008220;28;20026;-58
2022/09/26 11:35:52;;;;;;;12.52;10.32;;;;;;;;;;5023629;28;20238;-57
2022/09/26 11:38:22;;;;;;;11.57;10.13;;;;;;;;;;4996728;28;20512;-57
2022/09/26 11:40:48;;;;;;;11.60;10.10;;;;;;;;;;5012687;28;20105;-58
2022/09/26 11:43:24;;;;;;;10.25;9.18;;;;;;;;;;5012561;28;20065;-57
2022/09/26 11:45:59;;;;;;;10.25;9.10;;;;;;;;;;5024166;28;20026;-54
2022/09/26 11:48:32;;;;;;;10.80;9.73;;;;;;;;;;5013461;28;20029;-57
2022/09/26 11:51:18;;;;;;;10.15;9.15;;;;;;;;;;5013581;28;20104;-57
2022/09/26 11:53:54;;;;;;;11.02;8.88;;;;;;;;;;4986153;28;20038;-57
2022/09/26 11:56:38;;;;;;;9.77;8.77;;;;;;;;;;5013273;28;20026;-57
2022/09/26 11:59:18;;;;;;;11.00;9.05;;;;;;;;;;5031862;28;20033;-56
2022/09/26 12:01:47;;;;;;;10.63;9.52;;;;;;;;;;5014333;28;20426;-57
2022/09/26 12:04:16;;;;;;;10.45;8.73;;;;;;;;;;5014298;28;20030;-58
2022/09/26 12:07:06;;;;;;;7.68;6.88;;;;;;;;;;5015976;28;20069;-58
2022/09/26 12:09:50;;;;;;;7.95;6.50;;;;;;;;;;5017099;28;20543;-56
2022/09/26 12:12:30;;;;;;;9.65;8.35;;;;;;;;;;5012156;28;20501;-57
2022/09/26 12:15:01;;;;;;;7.97;7.25;;;;;;;;;;5012101;28;20041;-57
2022/09/26 12:17:33;;;;;;;9.25;8.43;;;;;;;;;;5021200;28;20033;-56
2022/09/26 12:19:59;;;;;;;9.15;8.25;;;;;;;;;;5014205;28;20025;-58
2022/09/26 12:22:31;;;;;;;8.48;7.63;;;;;;;;;;5012913;28;20123;-55
2022/09/26 12:25:08;;;;;;;9.02;8.23;;;;;;;;;;5012799;28;20025;-58
2022/09/26 12:27:34;;;;;;;9.05;7.40;;;;;;;;;;5022030;28;20034;-57
2022/09/26 12:30:03;;;;;;;9.60;7.55;;;;;;;;;;5031367;28;20037;-58
2022/09/26 12:32:48;;;;;;;10.30;7.35;;;;;;;;;;5031386;28;20025;-54
2022/09/26 12:35:18;;;;;;;8.68;7.10;;;;;;;;;;5020101;28;20488;-58
2022/09/26 12:37:57;;;;;;;7.47;6.47;;;;;;;;;;5026167;28;20095;-59
2022/09/26 12:40:29;;;;;;;8.30;7.38;;;;;;;;;;5011557;28;20032;-58
2022/09/26 12:43:07;;;;;;;7.97;6.95;;;;;;;;;;4993844;28;20022;-57
2022/09/26 12:45:52;;;;;;;8.02;7.22;;;;;;;;;;4996319;28;20026;-58
2022/09/26 12:48:28;;;;;;;9.32;7.50;;;;;;;;;;5024177;28;20108;-57
2022/09/26 12:50:54;;;;;;;8.43;7.53;;;;;;;;;;5011778;28;20060;-57
2022/09/26 12:53:35;;;;;;;7.80;6.97;;;;;;;;;;5028549;28;20603;-58
2022/09/26 12:56:05;;;;;;;7.60;6.88;;;;;;;;;;5030931;28;20100;-57
2022/09/26 12:58:36;;;;;;;7.63;6.82;;;;;;;;;;5022676;28;20018;-57
2022/09/26 13:01:02;;;;;;;7.35;6.60;;;;;;;;;;5005537;28;20030;-57
2022/09/26 13:03:35;;;;;;;6.97;6.27;;;;;;;;;;5031045;28;20032;-57
2022/09/26 13:06:25;;;;;;;7.50;6.32;;;;;;;;;;5031091;28;20496;-58
2022/09/26 13:08:56;;;;;;;7.40;6.65;;;;;;;;;;5020158;28;20037;-59
2022/09/26 13:11:26;;;;;;;7.57;6.32;;;;;;;;;;5003928;28;20026;-58
2022/09/26 13:13:56;;;;;;;7.25;6.55;;;;;;;;;;5012986;28;20150;-58
2022/09/26 13:16:25;;;;;;;7.00;6.15;;;;;;;;;;5031016;28;20025;-58
2022/09/26 13:18:55;;;;;;;6.38;5.78;;;;;;;;;;5020367;28;20073;-57
2022/09/26 13:21:28;;;;;;;7.65;5.10;;;;;;;;;;5020595;28;20040;-58
2022/09/26 13:23:57;;;;;;;9.13;8.23;;;;;;;;;;5030796;28;20120;-58
2022/09/26 13:26:29;;;;;;;8.30;7.03;;;;;;;;;;5030835;28;20500;-58
2022/09/26 13:29:02;;;;;;;9.15;8.02;;;;;;;;;;5019889;28;20062;-59
2022/09/26 13:31:54;;;;;;;8.32;7.55;;;;;;;;;;5028182;28;20022;-57
2022/09/26 13:34:40;;;;;;;7.75;5.32;;;;;;;;;;5034588;28;20108;-53
2022/09/26 13:37:10;;;;;;;10.70;8.30;;;;;;;;;;5030301;28;20025;-55
2022/09/26 13:39:46;;;;;;;7.38;6.68;;;;;;;;;;5022006;28;20159;-57
2022/09/26 13:42:19;;;;;;;7.30;6.25;;;;;;;;;;5022578;28;20026;-56
2022/09/26 13:45:02;;;;;;;6.50;5.90;;;;;;;;;;5022606;28;20040;-56
2022/09/26 13:47:37;;;;;;;6.72;6.03;;;;;;;;;;5025026;28;20020;-57
2022/09/26 13:50:17;;;;;;;7.05;6.38;;;;;;;;;;5021067;28;20026;-58
2022/09/26 13:53:02;;;;;;;913.78;431.77;;;;;;;;;;5023398;28;20110;-53
2022/09/26 13:55:29;;;;;;;17.83;14.38;;;;;;;;;;5006189;28;20494;-55
2022/09/26 13:58:05;;;;;;;8.25;7.45;;;;;;;;;;5024095;28;20029;-58
2022/09/26 14:00:39;;;;;;;7.20;6.50;;;;;;;;;;5025013;28;20029;-58
2022/09/26 14:03:08;;;;;;;9.73;7.32;;;;;;;;;;5023030;28;20021;-56
2022/09/26 14:05:40;;;;;;;8.45;7.57;;;;;;;;;;5018033;28;20076;-53
2022/09/26 14:11:14;;;;;;;7.97;6.35;;;;;;;;;;5034769;28;20534;-53
2022/09/26 14:13:40;;;;;;;8.38;6.60;;;;;;;;;;5027684;28;20497;-54
2022/09/26 14:16:25;;;;;;;9.32;6.68;;;;;;;;;;5030273;28;20030;-54
2022/09/26 14:19:11;;;;;;;9.60;7.95;;;;;;;;;;5027209;28;20434;-52
2022/09/26 14:21:37;;;;;;;10.90;8.38;;;;;;;;;;5051037;28;20479;-52
2022/09/26 14:24:18;;;;;;;9.75;8.77;;;;;;;;;;5057723;23;20045;-56
2022/09/26 14:26:44;;;;;;;12.00;10.80;;;;;;;;;;5072205;28;20516;-54
2022/09/26 14:29:23;;;;;;;14.05;11.82;;;;;;;;;;5073323;28;20055;-53
2022/09/26 14:32:16;;;;;;;9.63;8.45;;;;;;;;;;5072958;28;20033;-54
2022/09/26 14:34:48;;;;;;;7.95;6.95;;;;;;;;;;5049049;28;20103;-54
2022/09/26 14:37:23;;;;;;;7.80;7.10;;;;;;;;;;5075411;28;20032;-56
2022/09/26 14:40:01;;;;;;;8.30;6.78;;;;;;;;;;5093437;28;20085;-55
2022/09/26 14:42:27;;;;;;;20.95;16.13;;;;;;;;;;5093159;28;20028;-57
2022/09/26 14:45:01;;;;;;;11.10;9.85;;;;;;;;;;5081428;28;20051;-60
2022/09/26 14:47:29;;;;;;;10.23;6.85;;;;;;;;;;5055510;28;20564;-59
2022/09/26 14:50:01;;;;;;;6.78;6.22;;;;;;;;;;5054763;28;20567;-59
2022/09/26 14:52:28;;;;;;;6.45;5.85;;;;;;;;;;5061080;28;20083;-58
2022/09/26 14:54:57;;;;;;;8.07;5.85;;;;;;;;;;5053762;28;20111;-60
2022/09/26 14:57:27;;;;;;;7.18;5.90;;;;;;;;;;5062543;28;20074;-59
2022/09/26 14:59:54;;;;;;;6.68;5.53;;;;;;;;;;5064944;28;20024;-59
2022/09/26 15:02:24;;;;;;;6.80;6.03;;;;;;;;;;5056002;28;20029;-60
2022/09/26 15:05:02;;;;;;;8.20;5.85;;;;;;;;;;5064388;28;20556;-59